createdAt,value
2022-11-04T00:01:26.771Z,95121.81
2022-11-04T00:11:59.334Z,95118.84
2022-11-04T00:22:19.212Z,95115.66
2022-11-04T00:32:40.233Z,95120.19
2022-11-04T00:42:44.654Z,95137.06
2022-11-04T00:52:48.471Z,95137.56
2022-11-04T01:02:50.965Z,95137.84
2022-11-04T01:12:54.833Z,95152.56
2022-11-04T01:22:57.301Z,95154.63
2022-11-04T01:33:01.137Z,95167.47
2022-11-04T01:43:03.627Z,95166.88
2022-11-04T01:53:09.790Z,95152.66
2022-11-04T02:03:15.622Z,95145.50
2022-11-04T02:13:19.543Z,95158.28
2022-11-04T02:23:31.195Z,95144.16
2022-11-04T02:33:38.373Z,95147.38
2022-11-04T02:43:46.550Z,95139.63
2022-11-04T02:53:53.598Z,95122.72
2022-11-04T03:03:59.698Z,95119.75
2022-11-04T03:14:06.539Z,95137.41
2022-11-04T03:24:09.035Z,95145.59
2022-11-04T03:34:12.905Z,95163.16
2022-11-04T03:44:15.446Z,95171.25
2022-11-04T03:54:19.721Z,95165.22
2022-11-04T04:04:27.828Z,95183.22
2022-11-04T04:14:43.615Z,95150.13
2022-11-04T04:25:06.019Z,95186.91
2022-11-04T04:35:28.427Z,95206.88
2022-11-04T04:45:33.072Z,95169.75
2022-11-04T04:55:40.694Z,95121.44
2022-11-04T05:05:44.644Z,95103.03
2022-11-04T05:15:48.483Z,95102.31
2022-11-04T05:25:50.967Z,95133.97
2022-11-04T05:35:54.784Z,95131.88
2022-11-04T05:45:59.158Z,95147.41
2022-11-04T05:56:02.950Z,95104.94
2022-11-04T06:06:05.477Z,95118.63
2022-11-04T06:16:09.449Z,95140.63
2022-11-04T06:26:12.904Z,95157.19
2022-11-04T06:36:17.197Z,95177.97
2022-11-04T06:46:25.593Z,95191.50
2022-11-04T06:56:35.025Z,95185.81
2022-11-04T07:06:42.752Z,95171.66
2022-11-04T07:16:46.610Z,95141.16
2022-11-04T07:26:50.469Z,95139.59
2022-11-04T07:36:52.891Z,95154.75
2022-11-04T07:46:56.685Z,95144.78
2022-11-04T07:56:59.155Z,95136.81
2022-11-04T08:07:02.996Z,95116.56
2022-11-04T08:17:05.460Z,95122.66
2022-11-04T08:27:10.101Z,95132.38
2022-11-04T08:37:14.321Z,95131.97
2022-11-04T08:47:18.199Z,95149.13
2022-11-04T08:57:20.608Z,95157.44
2022-11-04T09:07:24.382Z,95172.91
2022-11-04T09:17:26.832Z,95178.47
2022-11-04T09:27:30.862Z,95175.69
2022-11-04T09:37:33.266Z,95178.03
2022-11-04T09:47:38.611Z,95175.41
2022-11-04T09:57:41.129Z,95153.56
2022-11-04T10:07:59.846Z,95149.88
2022-11-04T10:18:11.199Z,95152.56
2022-11-04T10:28:17.077Z,95145.41
2022-11-04T10:38:20.806Z,95139.81
2022-11-04T10:48:28.380Z,95130.97
2022-11-04T10:58:32.251Z,95126.69
2022-11-04T11:08:37.365Z,95117.06
2022-11-04T11:18:40.271Z,95113.59
2022-11-04T11:28:50.464Z,95096.72
2022-11-04T11:39:01.144Z,95094.00
2022-11-04T11:49:06.147Z,95088.94
2022-11-04T12:09:43.553Z,95081.66
2022-11-04T12:19:52.787Z,95079.41
2022-11-04T12:30:04.338Z,95078.53
2022-11-04T12:40:13.173Z,95092.59
2022-11-04T12:50:24.698Z,95096.66
2022-11-04T13:00:28.842Z,95098.47
2022-11-04T13:10:36.424Z,95111.72
2022-11-04T13:20:43.225Z,95113.84
2022-11-04T13:30:51.053Z,95110.03
2022-11-04T13:41:01.939Z,95108.44
2022-11-04T13:51:07.933Z,95119.34
2022-11-04T14:01:11.534Z,95127.88
2022-11-04T14:11:15.425Z,95133.81
2022-11-04T14:21:18.644Z,95137.13
2022-11-04T14:31:35.783Z,95157.22
2022-11-04T14:42:06.625Z,95154.34
2022-11-04T14:52:17.297Z,95166.38
2022-11-04T15:02:21.683Z,95180.69
2022-11-04T15:12:43.323Z,95180.50
2022-11-04T15:22:45.822Z,95198.44
2022-11-04T15:32:59.937Z,95196.56
2022-11-04T15:43:03.467Z,95212.88
2022-11-04T15:53:10.462Z,95216.88
2022-11-04T16:03:18.921Z,95228.09
2022-11-04T16:13:23.804Z,95230.47
2022-11-04T16:23:27.987Z,95242.69
2022-11-04T16:33:31.782Z,95256.50
2022-11-04T16:43:34.201Z,95270.38
2022-11-04T16:53:37.983Z,95290.16
2022-11-04T17:03:40.423Z,95309.91
2022-11-04T17:13:44.186Z,95343.88
2022-11-04T17:23:46.755Z,95351.50
2022-11-04T17:33:50.511Z,95358.50
2022-11-04T17:44:01.704Z,95364.84
2022-11-04T17:54:05.671Z,95371.22
2022-11-04T18:04:08.404Z,95387.19
2022-11-04T18:14:16.945Z,95394.41
2022-11-04T18:24:20.368Z,95399.97
2022-11-04T18:34:24.246Z,95409.03
2022-11-04T18:44:26.662Z,95419.16
2022-11-04T18:54:30.393Z,95435.22
2022-11-04T19:04:32.806Z,95433.06
2022-11-04T19:14:36.551Z,95449.00
2022-11-04T19:24:38.989Z,95470.06
2022-11-04T19:34:42.805Z,95493.03
2022-11-04T19:44:45.475Z,95506.84
2022-11-04T19:54:49.215Z,95522.13
2022-11-04T20:04:51.588Z,95530.00
2022-11-04T20:14:56.683Z,95541.56
2022-11-04T20:24:59.095Z,95561.00
2022-11-04T20:35:03.098Z,95576.75
2022-11-04T20:45:06.359Z,95605.28
2022-11-04T20:55:11.422Z,95601.19
2022-11-04T21:05:14.900Z,95607.72
2022-11-04T21:15:32.581Z,95622.22
2022-11-04T21:25:39.297Z,95622.38
2022-11-04T21:35:44.040Z,95634.16
2022-11-04T21:45:46.464Z,95644.94
2022-11-04T21:55:50.226Z,95654.19
2022-11-04T22:05:59.416Z,95657.59
2022-11-04T22:16:03.233Z,95660.63
2022-11-04T22:26:06.914Z,95668.00
2022-11-04T22:36:11.105Z,95680.06
2022-11-04T22:46:14.859Z,95686.06
2022-11-04T22:56:18.605Z,95684.50
2022-11-04T23:06:21.089Z,95696.72
2022-11-04T23:16:42.543Z,95697.84
2022-11-04T23:26:46.281Z,95694.63
2022-11-04T23:37:07.687Z,95710.53
2022-11-04T23:47:27.755Z,95716.38
2022-11-04T23:57:48.021Z,95728.19
